createdAt,value
2023-03-25T00:00:20.818Z,75254.66
2023-03-25T00:02:51.149Z,75256.69
2023-03-25T00:05:21.672Z,75260.75
2023-03-25T00:07:53.494Z,75252.63
2023-03-25T00:10:21.558Z,75250.56
2023-03-25T00:12:49.302Z,75258.72
2023-03-25T00:15:17.939Z,75262.81
2023-03-25T00:17:45.743Z,75254.66
2023-03-25T00:20:14.166Z,75262.81
2023-03-25T00:22:44.474Z,75254.66
2023-03-25T00:25:17.819Z,75256.69
2023-03-25T00:27:47.163Z,75234.28
2023-03-25T00:30:16.793Z,75230.19
2023-03-25T00:32:46.026Z,75230.19
2023-03-25T00:35:19.497Z,75224.06
2023-03-25T00:37:57.364Z,75226.13
2023-03-25T00:40:28.451Z,75222.03
2023-03-25T00:42:56.757Z,75222.03
2023-03-25T00:45:24.931Z,75215.91
2023-03-25T00:47:52.753Z,75222.03
2023-03-25T00:50:20.941Z,75230.19
2023-03-25T00:52:48.961Z,75234.28
2023-03-25T00:55:17.292Z,75226.13
2023-03-25T00:57:46.578Z,75230.19
2023-03-25T01:00:16.924Z,75234.28
2023-03-25T01:02:46.044Z,75222.03
2023-03-25T01:05:14.074Z,75209.81
2023-03-25T01:07:42.703Z,75207.78
2023-03-25T01:10:11.673Z,75211.84
2023-03-25T01:12:39.500Z,75213.88
2023-03-25T01:15:11.650Z,75217.97
2023-03-25T01:17:39.608Z,75217.97
2023-03-25T01:20:10.015Z,75211.84
2023-03-25T01:22:37.812Z,75213.88
2023-03-25T01:25:06.687Z,75228.16
2023-03-25T01:27:34.477Z,75234.28
2023-03-25T01:30:02.239Z,75250.56
2023-03-25T01:32:31.428Z,75234.28
2023-03-25T01:34:59.224Z,75238.34
2023-03-25T01:37:27.271Z,75238.34
2023-03-25T01:39:55.072Z,75238.34
2023-03-25T01:42:22.818Z,75238.34
2023-03-25T01:45:20.007Z,75236.31
2023-03-25T01:47:53.530Z,75250.56
2023-03-25T01:50:21.711Z,75256.69
2023-03-25T01:52:53.121Z,75246.50
2023-03-25T01:55:21.302Z,75260.75
2023-03-25T01:57:54.379Z,75258.72
2023-03-25T02:00:22.796Z,75270.97
2023-03-25T02:02:52.662Z,75266.88
2023-03-25T02:05:26.776Z,75279.09
2023-03-25T02:07:57.936Z,75277.06
2023-03-25T02:10:25.937Z,75270.97
2023-03-25T02:12:53.753Z,75264.84
2023-03-25T02:15:21.908Z,75277.06
2023-03-25T02:18:16.197Z,75262.81
2023-03-25T02:21:29.714Z,75258.72
2023-03-25T02:24:23.893Z,75281.16
2023-03-25T02:27:16.133Z,75299.50
2023-03-25T02:30:12.556Z,75303.56
2023-03-25T02:33:29.382Z,75295.41
2023-03-25T02:36:38.851Z,75315.81
2023-03-25T02:39:14.027Z,75321.91
2023-03-25T02:41:48.635Z,75323.94
2023-03-25T02:44:21.451Z,75323.94
2023-03-25T02:46:54.638Z,75328.03
2023-03-25T02:49:27.025Z,75336.19
2023-03-25T02:52:00.098Z,75340.25
2023-03-25T02:54:33.833Z,75348.41
2023-03-25T02:57:02.177Z,75356.56
2023-03-25T02:59:33.372Z,75364.72
2023-03-25T03:02:05.964Z,75364.72
2023-03-25T03:04:33.784Z,75362.69
2023-03-25T03:07:01.559Z,75354.53
2023-03-25T03:09:46.778Z,75362.69
2023-03-25T03:12:31.083Z,75362.69
2023-03-25T03:15:12.008Z,75374.91
2023-03-25T03:17:50.319Z,75381.03
2023-03-25T03:20:32.538Z,75376.94
2023-03-25T03:23:10.864Z,75372.88
2023-03-25T03:25:46.436Z,75385.09
2023-03-25T03:28:19.739Z,75383.06
2023-03-25T03:30:54.380Z,75389.19
2023-03-25T03:33:27.997Z,75389.19
2023-03-25T03:36:02.238Z,75379.00
2023-03-25T03:38:35.357Z,75393.25
2023-03-25T03:41:09.324Z,75391.22
2023-03-25T03:43:43.535Z,75395.28
2023-03-25T03:46:17.067Z,75403.44
2023-03-25T03:48:49.076Z,75395.28
2023-03-25T03:51:21.423Z,75393.25
2023-03-25T03:53:58.302Z,75393.25
2023-03-25T03:56:37.071Z,75399.38
2023-03-25T03:59:11.152Z,75407.53
2023-03-25T04:01:46.208Z,75421.78
2023-03-25T04:04:16.869Z,75427.91
2023-03-25T04:06:50.712Z,75425.88
2023-03-25T04:09:27.638Z,75440.13
2023-03-25T04:12:01.974Z,75446.25
2023-03-25T04:14:29.817Z,75454.41
2023-03-25T04:16:59.640Z,75462.56
2023-03-25T04:19:28.366Z,75470.72
2023-03-25T04:21:56.157Z,75470.72
2023-03-25T04:24:25.145Z,75474.78
2023-03-25T04:26:53.170Z,75487.03
2023-03-25T04:29:22.338Z,75491.09
2023-03-25T04:31:50.545Z,75499.25
2023-03-25T04:34:20.548Z,75499.25
2023-03-25T04:36:50.314Z,75495.19
2023-03-25T04:39:22.457Z,75495.19
2023-03-25T04:41:50.828Z,75489.06
2023-03-25T04:44:18.793Z,75487.03
2023-03-25T04:46:48.728Z,75491.09
2023-03-25T04:49:21.124Z,75491.09
2023-03-25T04:51:51.558Z,75493.13
2023-03-25T04:54:19.706Z,75491.09
2023-03-25T04:56:49.721Z,75487.03
2023-03-25T04:59:18.233Z,75495.19
2023-03-25T05:01:48.414Z,75489.06
2023-03-25T05:04:17.744Z,75487.03
2023-03-25T05:06:47.433Z,75491.09
2023-03-25T05:09:17.166Z,75495.19
2023-03-25T05:11:46.959Z,75497.22
2023-03-25T05:14:16.544Z,75493.13
2023-03-25T05:16:45.404Z,75485.00
2023-03-25T05:19:15.072Z,75482.94
2023-03-25T05:21:43.240Z,75487.03
2023-03-25T05:24:13.461Z,75480.91
2023-03-25T05:26:42.529Z,75485.00
2023-03-25T05:29:14.217Z,75485.00
2023-03-25T05:31:42.606Z,75487.03
2023-03-25T05:34:10.375Z,75489.06
2023-03-25T05:36:39.782Z,75487.03
2023-03-25T05:39:08.862Z,75485.00
2023-03-25T05:41:39.713Z,75493.13
2023-03-25T05:44:09.057Z,75497.22
2023-03-25T05:46:37.008Z,75482.94
2023-03-25T05:49:04.905Z,75478.88
2023-03-25T05:51:37.622Z,75491.09
2023-03-25T05:54:11.533Z,75495.19
2023-03-25T05:56:40.038Z,75493.13
2023-03-25T05:59:08.630Z,75495.19
2023-03-25T06:01:37.960Z,75495.19
2023-03-25T06:04:10.160Z,75491.09
2023-03-25T06:06:38.395Z,75482.94
2023-03-25T06:09:08.204Z,75487.03
2023-03-25T06:11:38.479Z,75491.09
2023-03-25T06:14:07.059Z,75487.03
2023-03-25T06:16:35.532Z,75487.03
2023-03-25T06:19:03.884Z,75487.03
2023-03-25T06:21:33.868Z,75487.03
2023-03-25T06:24:02.311Z,75485.00
2023-03-25T06:26:32.639Z,75474.78
2023-03-25T06:29:01.290Z,75470.72
2023-03-25T06:31:34.245Z,75460.53
2023-03-25T06:34:02.500Z,75446.25
2023-03-25T06:36:31.423Z,75419.75
2023-03-25T06:38:59.408Z,75395.28
2023-03-25T06:41:27.198Z,75376.94
2023-03-25T06:43:56.356Z,75354.53
2023-03-25T06:46:24.407Z,75323.94
2023-03-25T06:48:52.403Z,75311.72
2023-03-25T06:51:22.091Z,75303.56
2023-03-25T06:53:49.872Z,75295.41
2023-03-25T06:56:18.575Z,75270.97
2023-03-25T06:58:47.216Z,75281.16
2023-03-25T07:01:17.067Z,75277.06
2023-03-25T07:03:45.108Z,75260.75
2023-03-25T07:06:17.508Z,75254.66
2023-03-25T07:08:45.591Z,75262.81
2023-03-25T07:11:15.127Z,75258.72
2023-03-25T07:13:42.889Z,75258.72
2023-03-25T07:16:14.405Z,75254.66
2023-03-25T07:18:43.905Z,75242.41
2023-03-25T07:21:11.641Z,75248.53
2023-03-25T07:23:39.526Z,75252.63
2023-03-25T07:26:08.068Z,75230.19
2023-03-25T07:28:37.985Z,75242.41
2023-03-25T07:31:07.866Z,75226.13
2023-03-25T07:33:35.775Z,75232.22
2023-03-25T07:36:06.862Z,75230.19
2023-03-25T07:38:34.793Z,75230.19
2023-03-25T07:41:06.401Z,75230.19
2023-03-25T07:43:34.185Z,75234.28
2023-03-25T07:46:02.368Z,75238.34
2023-03-25T07:48:30.658Z,75273.00
2023-03-25T07:50:58.546Z,75254.66
2023-03-25T07:53:27.721Z,75260.75
2023-03-25T07:55:55.575Z,75254.66
2023-03-25T07:58:23.339Z,75248.53
2023-03-25T08:00:51.151Z,75226.13
2023-03-25T08:03:18.995Z,75230.19
2023-03-25T08:05:48.004Z,75226.13
2023-03-25T08:08:16.576Z,75240.38
2023-03-25T08:10:47.305Z,75240.38
2023-03-25T08:13:15.628Z,75260.75
2023-03-25T08:15:44.022Z,75244.47
2023-03-25T08:18:11.874Z,75232.22
2023-03-25T08:20:39.680Z,75242.41
2023-03-25T08:23:10.476Z,75230.19
2023-03-25T08:25:38.628Z,75222.03
2023-03-25T08:28:08.590Z,75205.72
2023-03-25T08:30:38.956Z,75215.91
2023-03-25T08:33:07.512Z,75193.50
2023-03-25T08:35:36.893Z,75193.50
2023-03-25T08:38:06.630Z,75185.34
2023-03-25T08:40:35.515Z,75160.88
2023-03-25T08:43:07.382Z,75134.41
2023-03-25T08:45:36.540Z,75132.34
2023-03-25T08:48:05.008Z,75103.81
2023-03-25T08:50:32.786Z,75103.81
2023-03-25T08:53:00.555Z,75093.63
2023-03-25T08:55:28.335Z,75101.78
2023-03-25T08:57:56.077Z,75105.84
2023-03-25T09:00:27.268Z,75126.25
2023-03-25T09:02:55.179Z,75124.19
2023-03-25T09:05:23.055Z,75142.53
2023-03-25T09:07:50.883Z,75154.78
2023-03-25T09:10:18.784Z,75152.75
2023-03-25T09:12:46.511Z,75175.16
2023-03-25T09:15:14.322Z,75301.53
2023-03-25T09:17:43.543Z,75417.72
2023-03-25T09:20:12.233Z,75446.25
2023-03-25T09:22:40.842Z,75427.91
2023-03-25T09:25:09.731Z,75409.56
2023-03-25T09:27:38.125Z,75393.25
2023-03-25T09:30:07.274Z,75370.84
2023-03-25T09:32:35.604Z,75352.50
2023-03-25T09:35:05.208Z,75315.81
2023-03-25T09:37:32.947Z,75307.66
2023-03-25T09:40:00.674Z,75299.50
2023-03-25T09:42:36.770Z,75279.09
2023-03-25T09:45:16.356Z,75279.09
2023-03-25T09:47:53.942Z,75275.03
2023-03-25T09:50:24.796Z,75258.72
2023-03-25T09:52:57.847Z,75222.03
2023-03-25T09:55:28.088Z,75209.81
2023-03-25T09:58:01.919Z,75156.81
2023-03-25T10:00:29.837Z,75105.84
2023-03-25T10:03:08.914Z,75030.44
2023-03-25T10:05:54.698Z,75014.13
2023-03-25T10:08:34.443Z,74953.00
2023-03-25T10:11:07.111Z,74918.34
2023-03-25T10:13:44.394Z,74891.84
2023-03-25T10:16:25.800Z,74910.19
2023-03-25T10:19:07.105Z,74879.63
2023-03-25T10:21:46.761Z,74840.91
2023-03-25T10:24:19.405Z,74842.94
2023-03-25T10:26:53.361Z,74798.09
2023-03-25T10:29:25.909Z,74779.75
2023-03-25T10:31:55.844Z,74775.69
2023-03-25T10:34:36.253Z,74771.59
2023-03-25T10:37:12.444Z,74787.91
2023-03-25T10:39:45.379Z,74842.94
2023-03-25T10:42:26.718Z,74891.84
2023-03-25T10:44:55.448Z,74891.84
2023-03-25T10:47:27.851Z,74895.94
2023-03-25T10:49:56.767Z,74877.59
2023-03-25T10:52:26.438Z,74842.94
2023-03-25T10:54:56.849Z,74834.78
2023-03-25T10:57:28.179Z,74830.72
2023-03-25T11:00:08.010Z,74769.56
2023-03-25T11:02:35.905Z,74728.81
2023-03-25T11:05:06.574Z,74732.88
2023-03-25T11:07:38.485Z,74659.53
2023-03-25T11:10:15.733Z,74635.06
2023-03-25T11:12:45.319Z,74590.22
2023-03-25T11:15:16.356Z,74537.25
2023-03-25T11:17:45.502Z,74563.75
2023-03-25T11:20:21.441Z,74624.88
2023-03-25T11:22:54.655Z,74686.00
2023-03-25T11:25:26.756Z,74704.34
2023-03-25T11:27:59.113Z,74657.47
2023-03-25T11:30:27.543Z,74653.41
2023-03-25T11:33:01.042Z,74645.25
2023-03-25T11:35:31.461Z,74675.81
2023-03-25T11:38:03.029Z,74651.38
2023-03-25T11:40:31.940Z,74657.47
2023-03-25T11:43:01.703Z,74683.97
2023-03-25T11:45:35.729Z,74688.06
2023-03-25T11:48:12.350Z,74683.97
2023-03-25T11:50:47.498Z,74622.84
2023-03-25T11:53:18.011Z,74610.63
2023-03-25T11:55:48.894Z,74586.16
2023-03-25T11:58:21.443Z,74516.88
2023-03-25T12:00:51.061Z,74529.09
2023-03-25T12:03:22.715Z,74588.19
2023-03-25T12:06:02.318Z,74659.53
2023-03-25T12:08:42.588Z,74716.59
2023-03-25T12:11:15.285Z,74728.81
2023-03-25T12:14:07.280Z,74769.56
2023-03-25T12:16:41.592Z,74777.72
2023-03-25T12:19:17.598Z,74783.84
2023-03-25T12:22:00.821Z,74802.19
2023-03-25T12:24:46.310Z,74814.41
2023-03-25T12:27:29.774Z,74814.41
2023-03-25T12:30:06.195Z,74796.06
2023-03-25T12:32:43.929Z,74802.19
2023-03-25T12:35:29.260Z,74787.91
2023-03-25T12:38:23.830Z,74765.50
2023-03-25T12:41:05.250Z,74765.50
2023-03-25T12:43:41.648Z,74728.81
2023-03-25T12:46:20.746Z,74749.19
2023-03-25T12:49:00.647Z,74763.47
2023-03-25T12:51:39.600Z,74741.03
2023-03-25T12:54:18.177Z,74690.09
2023-03-25T12:56:58.184Z,74688.06
2023-03-25T12:59:48.084Z,74704.34
2023-03-25T13:02:33.622Z,74722.69
2023-03-25T13:05:15.945Z,74673.78
2023-03-25T13:07:47.656Z,74635.06
2023-03-25T13:10:19.132Z,74647.28
2023-03-25T13:12:51.048Z,74643.22
2023-03-25T13:15:26.948Z,74686.00
2023-03-25T13:17:58.901Z,74704.34
2023-03-25T13:20:29.521Z,74645.25
2023-03-25T13:23:02.044Z,74586.16
2023-03-25T13:25:34.631Z,74533.16
2023-03-25T13:28:08.023Z,74522.97
2023-03-25T13:30:39.861Z,74533.16
2023-03-25T13:33:13.798Z,74522.97
2023-03-25T13:35:48.368Z,74502.59
2023-03-25T13:38:22.031Z,74488.34
2023-03-25T13:40:59.310Z,74467.97
2023-03-25T13:43:34.123Z,74467.97
2023-03-25T13:46:09.895Z,74490.38
2023-03-25T13:48:43.148Z,74504.63
2023-03-25T13:51:11.260Z,74508.72
2023-03-25T13:53:46.479Z,74512.78
2023-03-25T13:57:00.083Z,74561.69
2023-03-25T13:59:52.955Z,74594.31
2023-03-25T14:02:39.345Z,74639.13
2023-03-25T14:05:37.314Z,74679.91
2023-03-25T14:08:31.308Z,74659.53
2023-03-25T14:11:17.026Z,74659.53
2023-03-25T14:13:48.184Z,74639.13
2023-03-25T14:16:20.987Z,74645.25
2023-03-25T14:18:53.261Z,74643.22
2023-03-25T14:21:35.662Z,74631.00
2023-03-25T14:24:06.890Z,74606.53
2023-03-25T14:26:37.696Z,74602.47
2023-03-25T14:29:10.161Z,74616.72
2023-03-25T14:31:39.352Z,74624.88
2023-03-25T14:34:35.533Z,74618.75
2023-03-25T14:37:34.153Z,74665.63
2023-03-25T14:40:23.301Z,74663.59
2023-03-25T14:43:01.412Z,74688.06
2023-03-25T14:45:43.288Z,74704.34
2023-03-25T14:48:30.513Z,74734.94
2023-03-25T14:51:10.905Z,74757.34
2023-03-25T14:53:39.442Z,74808.28
2023-03-25T14:56:09.529Z,74891.84
2023-03-25T14:58:39.856Z,75001.91
2023-03-25T15:01:12.389Z,75071.22
2023-03-25T15:03:44.502Z,75144.59
2023-03-25T15:06:17.080Z,75144.59
2023-03-25T15:08:53.901Z,75109.94
2023-03-25T15:11:28.368Z,75079.38
2023-03-25T15:14:03.288Z,75075.28
2023-03-25T15:16:36.451Z,75075.28
2023-03-25T15:19:09.013Z,75075.28
2023-03-25T15:22:22.618Z,75069.16
2023-03-25T15:25:00.546Z,75079.38
2023-03-25T15:27:50.322Z,75081.41
2023-03-25T15:30:35.721Z,75081.41
2023-03-25T15:33:21.516Z,75058.97
2023-03-25T15:36:08.519Z,75034.53
2023-03-25T15:39:08.241Z,75008.03
2023-03-25T15:41:51.438Z,75020.25
2023-03-25T15:44:48.461Z,75022.28
2023-03-25T15:47:47.239Z,75026.38
2023-03-25T15:50:36.263Z,75030.44
2023-03-25T15:53:42.604Z,75058.97
2023-03-25T15:56:14.616Z,75077.31
2023-03-25T15:58:52.120Z,75085.47
2023-03-25T16:01:24.918Z,75116.06
2023-03-25T16:04:01.872Z,75128.28
2023-03-25T16:06:32.101Z,75197.56
2023-03-25T16:09:03.065Z,75230.19
2023-03-25T16:11:31.410Z,75287.25
2023-03-25T16:14:08.388Z,75328.03
2023-03-25T16:16:40.586Z,75364.72
2023-03-25T16:19:12.911Z,75379.00
2023-03-25T16:21:41.069Z,75417.72
2023-03-25T16:24:13.814Z,75427.91
2023-03-25T16:26:44.498Z,75458.50
2023-03-25T16:29:18.540Z,75482.94
2023-03-25T16:31:57.864Z,75487.03
2023-03-25T16:34:27.557Z,75497.22
2023-03-25T16:36:56.791Z,75521.69
2023-03-25T16:39:26.228Z,75523.72
2023-03-25T16:42:02.239Z,75546.13
2023-03-25T16:44:30.394Z,75564.47
2023-03-25T16:46:58.462Z,75601.19
2023-03-25T16:49:30.393Z,75617.50
2023-03-25T16:51:59.440Z,75637.88
2023-03-25T16:54:37.695Z,75672.53
2023-03-25T16:57:08.685Z,75686.78
2023-03-25T16:59:38.373Z,75729.59
2023-03-25T17:02:26.156Z,75739.81
2023-03-25T17:04:57.361Z,75737.75
2023-03-25T17:07:29.723Z,75731.66
2023-03-25T17:10:00.758Z,75739.81
2023-03-25T17:12:30.700Z,75743.88
2023-03-25T17:15:06.921Z,75739.81
2023-03-25T17:17:41.542Z,75743.88
2023-03-25T17:20:19.020Z,75743.88
2023-03-25T17:22:59.436Z,75743.88
2023-03-25T17:25:32.285Z,75754.06
2023-03-25T17:28:07.090Z,75764.25
2023-03-25T17:30:45.301Z,75768.34
2023-03-25T17:33:16.541Z,75760.19
2023-03-25T17:35:46.784Z,75768.34
2023-03-25T17:38:24.630Z,75766.31
2023-03-25T17:41:00.876Z,75770.38
2023-03-25T17:43:31.009Z,75792.81
2023-03-25T17:46:00.509Z,75798.91
2023-03-25T17:48:28.779Z,75823.38
2023-03-25T17:50:58.487Z,75831.53
2023-03-25T17:53:26.702Z,75837.66
2023-03-25T17:55:55.149Z,75817.25
2023-03-25T17:58:24.340Z,75825.41
2023-03-25T18:00:53.146Z,75841.72
2023-03-25T18:03:23.879Z,75845.81
2023-03-25T18:05:54.172Z,75856.00
2023-03-25T18:08:23.776Z,75866.19
2023-03-25T18:10:53.203Z,75876.38
2023-03-25T18:13:22.614Z,75884.53
2023-03-25T18:15:52.664Z,75900.84
2023-03-25T18:18:24.266Z,75925.31
2023-03-25T18:20:52.895Z,75888.63
2023-03-25T18:23:21.287Z,75898.81
2023-03-25T18:25:49.508Z,75906.97
2023-03-25T18:28:17.338Z,75927.34
2023-03-25T18:30:46.883Z,75931.44
2023-03-25T18:33:16.467Z,75941.63
2023-03-25T18:35:44.988Z,75945.69
2023-03-25T18:38:19.136Z,75947.75
2023-03-25T18:40:48.077Z,75949.78
2023-03-25T18:43:15.880Z,75947.75
2023-03-25T18:45:44.656Z,75941.63
2023-03-25T18:48:13.700Z,75923.28
2023-03-25T18:50:48.457Z,75923.28
2023-03-25T18:53:16.359Z,75939.59
2023-03-25T18:55:46.011Z,75947.75
2023-03-25T18:58:17.470Z,75947.75
2023-03-25T19:00:46.483Z,75955.91
2023-03-25T19:03:14.590Z,75972.22
2023-03-25T19:05:44.394Z,75978.31
2023-03-25T19:08:17.031Z,75976.28
2023-03-25T19:10:46.017Z,75986.47
2023-03-25T19:13:14.498Z,76000.75
2023-03-25T19:15:42.943Z,75998.72
2023-03-25T19:18:16.914Z,75996.66
2023-03-25T19:20:47.105Z,75992.59
2023-03-25T19:23:16.662Z,75980.34
2023-03-25T19:25:45.794Z,75976.28
2023-03-25T19:28:13.967Z,75980.34
2023-03-25T19:30:43.925Z,75982.41
2023-03-25T19:33:11.873Z,75980.34
2023-03-25T19:35:41.319Z,75988.50
2023-03-25T19:38:10.574Z,75992.59
2023-03-25T19:40:39.009Z,75996.66
2023-03-25T19:43:07.513Z,76006.88
2023-03-25T19:45:35.662Z,76015.03
2023-03-25T19:48:03.442Z,76025.22
2023-03-25T19:50:33.243Z,76033.38
2023-03-25T19:53:03.119Z,76057.84
2023-03-25T19:55:32.766Z,76066.00
2023-03-25T19:58:00.504Z,76061.91
2023-03-25T20:00:31.733Z,76066.00
2023-03-25T20:03:01.769Z,76059.88
2023-03-25T20:05:31.123Z,76070.06
2023-03-25T20:07:59.583Z,76070.06
2023-03-25T20:10:30.321Z,76082.28
2023-03-25T20:13:00.159Z,76078.22
2023-03-25T20:15:28.157Z,76070.06
2023-03-25T20:17:56.754Z,76063.94
2023-03-25T20:20:24.921Z,76066.00
2023-03-25T20:22:52.686Z,76057.84
2023-03-25T20:25:20.689Z,76061.91
2023-03-25T20:27:48.863Z,76057.84
2023-03-25T20:30:20.330Z,76061.91
2023-03-25T20:32:48.976Z,76061.91
2023-03-25T20:35:18.351Z,76053.75
2023-03-25T20:37:48.785Z,76047.63
2023-03-25T20:40:19.765Z,76045.59
2023-03-25T20:42:50.130Z,76045.59
2023-03-25T20:45:19.758Z,76047.63
2023-03-25T20:47:47.714Z,76049.69
2023-03-25T20:50:17.840Z,76057.84
2023-03-25T20:52:46.075Z,76051.72
2023-03-25T20:55:14.665Z,76049.69
2023-03-25T20:57:42.494Z,76057.84
2023-03-25T21:00:14.309Z,76070.06
2023-03-25T21:02:44.953Z,76061.91
2023-03-25T21:05:12.837Z,76066.00
2023-03-25T21:07:41.253Z,76072.09
2023-03-25T21:10:10.176Z,76074.16
2023-03-25T21:12:43.914Z,76078.22
2023-03-25T21:15:13.068Z,76086.38
2023-03-25T21:17:40.997Z,76106.75
2023-03-25T21:20:11.722Z,76112.88
2023-03-25T21:22:44.274Z,76119.00
2023-03-25T21:25:16.824Z,76121.03
2023-03-25T21:27:46.745Z,76114.91
2023-03-25T21:30:15.913Z,76116.97
2023-03-25T21:32:43.834Z,76110.84
2023-03-25T21:35:13.823Z,76121.03
2023-03-25T21:37:41.837Z,76127.16
2023-03-25T21:40:12.653Z,76139.38
2023-03-25T21:42:41.426Z,76139.38
2023-03-25T21:45:11.940Z,76139.38
2023-03-25T21:47:40.281Z,76143.47
2023-03-25T21:50:11.349Z,76153.66
2023-03-25T21:52:46.639Z,76159.78
2023-03-25T21:55:15.447Z,76169.97
2023-03-25T21:57:44.929Z,76169.97
2023-03-25T22:00:16.795Z,76176.09
2023-03-25T22:02:46.460Z,76192.41
2023-03-25T22:05:16.275Z,76204.63
2023-03-25T22:07:45.833Z,76225.00
2023-03-25T22:10:13.726Z,76225.00
2023-03-25T22:12:41.674Z,76225.00
2023-03-25T22:15:11.252Z,76216.84
2023-03-25T22:17:39.074Z,76208.69
2023-03-25T22:20:08.729Z,76200.56
2023-03-25T22:22:36.516Z,76200.56
2023-03-25T22:25:06.756Z,76204.63
2023-03-25T22:27:35.019Z,76208.69
2023-03-25T22:30:03.074Z,76206.66
2023-03-25T22:32:30.911Z,76210.75
2023-03-25T22:34:58.661Z,76216.84
2023-03-25T22:37:26.482Z,76231.13
2023-03-25T22:39:54.243Z,76229.09
2023-03-25T22:42:25.793Z,76241.31
2023-03-25T22:44:53.545Z,76253.56
2023-03-25T22:47:21.482Z,76271.91
2023-03-25T22:49:49.218Z,76278.03
2023-03-25T22:52:17.018Z,76282.09
2023-03-25T22:54:44.841Z,76282.09
2023-03-25T22:57:12.724Z,76278.03
2023-03-25T22:59:41.886Z,76276.00
2023-03-25T23:02:15.544Z,76263.75
2023-03-25T23:04:43.397Z,76249.47
2023-03-25T23:07:13.744Z,76251.53
2023-03-25T23:09:45.152Z,76253.56
2023-03-25T23:12:14.685Z,76249.47
2023-03-25T23:14:49.629Z,76241.31
2023-03-25T23:17:17.454Z,76249.47
2023-03-25T23:19:46.040Z,76243.38
2023-03-25T23:22:13.854Z,76247.44
2023-03-25T23:24:42.184Z,76249.47
2023-03-25T23:27:12.110Z,76267.84
2023-03-25T23:29:41.705Z,76269.88
2023-03-25T23:32:11.748Z,76261.72
2023-03-25T23:34:40.324Z,76253.56
2023-03-25T23:37:09.606Z,76249.47
2023-03-25T23:39:40.371Z,76249.47
2023-03-25T23:42:08.833Z,76245.41
2023-03-25T23:44:37.165Z,76257.63
2023-03-25T23:47:06.170Z,76269.88
2023-03-25T23:49:38.090Z,76278.03
2023-03-25T23:52:11.073Z,76271.91
2023-03-25T23:54:39.413Z,76265.78
2023-03-25T23:57:07.264Z,76265.78
2023-03-25T23:59:35.046Z,76257.63
